sensor_id;sensor_type;location;lat;lon;timestamp;P1;durP1;ratioP1;P2;durP2;ratioP2
41345;SDS011;76901;48.338;10.866;2024-03-06T00:00:34;18.25;;;12.88;;
41345;SDS011;76901;48.338;10.866;2024-03-06T00:03:00;19.40;;;12.80;;
41345;SDS011;76901;48.338;10.866;2024-03-06T00:05:25;16.27;;;12.25;;
41345;SDS011;76901;48.338;10.866;2024-03-06T00:07:52;15.82;;;11.88;;
41345;SDS011;76901;48.338;10.866;2024-03-06T00:10:17;19.05;;;13.20;;
41345;SDS011;76901;48.338;10.866;2024-03-06T00:12:42;17.60;;;13.30;;
41345;SDS011;76901;48.338;10.866;2024-03-06T00:15:08;18.33;;;13.52;;
41345;SDS011;76901;48.338;10.866;2024-03-06T00:17:33;17.75;;;13.48;;
41345;SDS011;76901;48.338;10.866;2024-03-06T00:19:59;20.70;;;14.32;;
41345;SDS011;76901;48.338;10.866;2024-03-06T00:22:24;15.98;;;12.13;;
41345;SDS011;76901;48.338;10.866;2024-03-06T00:24:51;16.67;;;13.00;;
41345;SDS011;76901;48.338;10.866;2024-03-06T00:27:16;17.75;;;13.15;;
41345;SDS011;76901;48.338;10.866;2024-03-06T00:29:42;18.30;;;13.38;;
41345;SDS011;76901;48.338;10.866;2024-03-06T00:32:07;18.65;;;14.05;;
41345;SDS011;76901;48.338;10.866;2024-03-06T00:34:32;18.27;;;13.85;;
41345;SDS011;76901;48.338;10.866;2024-03-06T00:36:58;20.35;;;14.50;;
41345;SDS011;76901;48.338;10.866;2024-03-06T00:39:23;20.75;;;13.52;;
41345;SDS011;76901;48.338;10.866;2024-03-06T00:41:50;16.48;;;13.18;;
41345;SDS011;76901;48.338;10.866;2024-03-06T00:44:15;17.45;;;12.95;;
41345;SDS011;76901;48.338;10.866;2024-03-06T00:46:41;20.90;;;14.70;;
41345;SDS011;76901;48.338;10.866;2024-03-06T00:49:06;18.02;;;13.30;;
41345;SDS011;76901;48.338;10.866;2024-03-06T00:51:31;20.10;;;14.70;;
41345;SDS011;76901;48.338;10.866;2024-03-06T00:53:57;18.02;;;14.30;;
41345;SDS011;76901;48.338;10.866;2024-03-06T00:56:22;18.80;;;14.25;;
41345;SDS011;76901;48.338;10.866;2024-03-06T00:58:49;20.98;;;14.43;;
41345;SDS011;76901;48.338;10.866;2024-03-06T01:01:15;17.88;;;14.00;;
41345;SDS011;76901;48.338;10.866;2024-03-06T01:03:40;17.45;;;13.25;;
41345;SDS011;76901;48.338;10.866;2024-03-06T01:06:06;18.73;;;13.73;;
41345;SDS011;76901;48.338;10.866;2024-03-06T01:08:31;19.35;;;13.18;;
41345;SDS011;76901;48.338;10.866;2024-03-06T01:10:56;18.40;;;14.13;;
41345;SDS011;76901;48.338;10.866;2024-03-06T01:13:22;16.40;;;13.25;;
41345;SDS011;76901;48.338;10.866;2024-03-06T01:15:49;18.17;;;13.77;;
41345;SDS011;76901;48.338;10.866;2024-03-06T01:18:14;20.35;;;14.50;;
41345;SDS011;76901;48.338;10.866;2024-03-06T01:20:39;19.95;;;15.02;;
41345;SDS011;76901;48.338;10.866;2024-03-06T01:23:05;18.30;;;13.65;;
41345;SDS011;76901;48.338;10.866;2024-03-06T01:25:30;16.52;;;12.82;;
41345;SDS011;76901;48.338;10.866;2024-03-06T01:27:56;17.65;;;14.18;;
41345;SDS011;76901;48.338;10.866;2024-03-06T01:30:21;19.63;;;14.05;;
41345;SDS011;76901;48.338;10.866;2024-03-06T01:32:48;19.33;;;14.40;;
41345;SDS011;76901;48.338;10.866;2024-03-06T01:35:13;18.50;;;14.35;;
41345;SDS011;76901;48.338;10.866;2024-03-06T01:37:39;19.38;;;14.23;;
41345;SDS011;76901;48.338;10.866;2024-03-06T01:40:05;21.13;;;14.38;;
41345;SDS011;76901;48.338;10.866;2024-03-06T01:42:31;18.45;;;13.85;;
41345;SDS011;76901;48.338;10.866;2024-03-06T01:44:56;22.48;;;14.80;;
41345;SDS011;76901;48.338;10.866;2024-03-06T01:47:21;17.10;;;13.52;;
41345;SDS011;76901;48.338;10.866;2024-03-06T01:49:48;18.45;;;14.20;;
41345;SDS011;76901;48.338;10.866;2024-03-06T01:52:14;17.58;;;13.65;;
41345;SDS011;76901;48.338;10.866;2024-03-06T01:54:41;22.67;;;14.00;;
41345;SDS011;76901;48.338;10.866;2024-03-06T01:57:07;18.17;;;13.57;;
41345;SDS011;76901;48.338;10.866;2024-03-06T01:59:34;17.67;;;12.52;;
41345;SDS011;76901;48.338;10.866;2024-03-06T02:01:59;16.00;;;12.27;;
41345;SDS011;76901;48.338;10.866;2024-03-06T02:04:25;19.48;;;13.52;;
41345;SDS011;76901;48.338;10.866;2024-03-06T02:06:52;19.42;;;12.98;;
41345;SDS011;76901;48.338;10.866;2024-03-06T02:09:17;19.30;;;13.70;;
41345;SDS011;76901;48.338;10.866;2024-03-06T02:11:43;20.83;;;14.05;;
41345;SDS011;76901;48.338;10.866;2024-03-06T02:14:09;18.38;;;13.98;;
41345;SDS011;76901;48.338;10.866;2024-03-06T02:16:35;20.98;;;13.75;;
41345;SDS011;76901;48.338;10.866;2024-03-06T02:19:00;18.35;;;13.52;;
41345;SDS011;76901;48.338;10.866;2024-03-06T02:21:27;17.77;;;12.80;;
41345;SDS011;76901;48.338;10.866;2024-03-06T02:23:52;18.05;;;12.30;;
41345;SDS011;76901;48.338;10.866;2024-03-06T02:26:18;18.17;;;12.20;;
41345;SDS011;76901;48.338;10.866;2024-03-06T02:28:46;17.83;;;13.25;;
41345;SDS011;76901;48.338;10.866;2024-03-06T02:31:12;17.52;;;13.15;;
41345;SDS011;76901;48.338;10.866;2024-03-06T02:33:37;17.98;;;12.93;;
41345;SDS011;76901;48.338;10.866;2024-03-06T02:36:03;19.25;;;14.18;;
41345;SDS011;76901;48.338;10.866;2024-03-06T02:38:30;19.35;;;13.32;;
41345;SDS011;76901;48.338;10.866;2024-03-06T02:40:55;15.77;;;12.05;;
41345;SDS011;76901;48.338;10.866;2024-03-06T02:43:20;18.50;;;12.77;;
41345;SDS011;76901;48.338;10.866;2024-03-06T02:45:46;17.95;;;12.77;;
41345;SDS011;76901;48.338;10.866;2024-03-06T02:48:11;17.35;;;13.40;;
41345;SDS011;76901;48.338;10.866;2024-03-06T02:50:36;18.65;;;13.55;;
41345;SDS011;76901;48.338;10.866;2024-03-06T02:53:02;18.33;;;12.95;;
41345;SDS011;76901;48.338;10.866;2024-03-06T02:55:29;17.35;;;12.15;;
41345;SDS011;76901;48.338;10.866;2024-03-06T02:57:54;17.45;;;12.80;;
41345;SDS011;76901;48.338;10.866;2024-03-06T03:00:19;19.48;;;12.68;;
41345;SDS011;76901;48.338;10.866;2024-03-06T03:02:45;19.65;;;13.88;;
41345;SDS011;76901;48.338;10.866;2024-03-06T03:05:10;21.83;;;14.52;;
41345;SDS011;76901;48.338;10.866;2024-03-06T03:07:35;21.60;;;15.07;;
41345;SDS011;76901;48.338;10.866;2024-03-06T03:10:01;19.05;;;13.48;;
41345;SDS011;76901;48.338;10.866;2024-03-06T03:12:27;16.90;;;12.82;;
41345;SDS011;76901;48.338;10.866;2024-03-06T03:14:53;17.48;;;12.30;;
41345;SDS011;76901;48.338;10.866;2024-03-06T03:17:18;17.77;;;12.13;;
41345;SDS011;76901;48.338;10.866;2024-03-06T03:19:44;19.33;;;13.25;;
41345;SDS011;76901;48.338;10.866;2024-03-06T03:22:09;18.23;;;13.23;;
41345;SDS011;76901;48.338;10.866;2024-03-06T03:24:34;18.25;;;11.63;;
41345;SDS011;76901;48.338;10.866;2024-03-06T03:27:00;18.58;;;13.35;;
41345;SDS011;76901;48.338;10.866;2024-03-06T03:29:27;18.25;;;13.18;;
41345;SDS011;76901;48.338;10.866;2024-03-06T03:31:52;17.52;;;13.20;;
41345;SDS011;76901;48.338;10.866;2024-03-06T03:34:17;19.42;;;12.85;;
41345;SDS011;76901;48.338;10.866;2024-03-06T03:36:43;14.77;;;10.55;;
41345;SDS011;76901;48.338;10.866;2024-03-06T03:39:09;16.52;;;11.77;;
41345;SDS011;76901;48.338;10.866;2024-03-06T03:41:35;16.85;;;11.70;;
41345;SDS011;76901;48.338;10.866;2024-03-06T03:44:00;14.52;;;10.52;;
41345;SDS011;76901;48.338;10.866;2024-03-06T03:46:27;17.50;;;12.65;;
41345;SDS011;76901;48.338;10.866;2024-03-06T03:48:52;17.70;;;11.68;;
41345;SDS011;76901;48.338;10.866;2024-03-06T03:51:18;18.35;;;12.23;;
41345;SDS011;76901;48.338;10.866;2024-03-06T03:53:43;18.80;;;12.88;;
41345;SDS011;76901;48.338;10.866;2024-03-06T03:56:08;17.23;;;12.57;;
41345;SDS011;76901;48.338;10.866;2024-03-06T03:58:34;17.05;;;11.52;;
41345;SDS011;76901;48.338;10.866;2024-03-06T04:00:59;15.60;;;10.93;;
41345;SDS011;76901;48.338;10.866;2024-03-06T04:03:26;15.23;;;11.68;;
41345;SDS011;76901;48.338;10.866;2024-03-06T04:05:51;16.00;;;11.50;;
41345;SDS011;76901;48.338;10.866;2024-03-06T04:08:17;17.23;;;11.95;;
41345;SDS011;76901;48.338;10.866;2024-03-06T04:10:42;19.98;;;11.95;;
41345;SDS011;76901;48.338;10.866;2024-03-06T04:13:07;15.73;;;11.55;;
41345;SDS011;76901;48.338;10.866;2024-03-06T04:15:33;17.00;;;11.68;;
41345;SDS011;76901;48.338;10.866;2024-03-06T04:17:58;15.63;;;11.00;;
41345;SDS011;76901;48.338;10.866;2024-03-06T04:20:25;18.83;;;12.18;;
41345;SDS011;76901;48.338;10.866;2024-03-06T04:22:50;15.35;;;10.80;;
41345;SDS011;76901;48.338;10.866;2024-03-06T04:25:16;17.92;;;11.65;;
41345;SDS011;76901;48.338;10.866;2024-03-06T04:27:41;19.27;;;12.27;;
41345;SDS011;76901;48.338;10.866;2024-03-06T04:30:07;18.73;;;13.45;;
41345;SDS011;76901;48.338;10.866;2024-03-06T04:32:33;19.48;;;12.63;;
41345;SDS011;76901;48.338;10.866;2024-03-06T04:34:58;16.45;;;11.77;;
41345;SDS011;76901;48.338;10.866;2024-03-06T04:37:25;15.55;;;11.50;;
41345;SDS011;76901;48.338;10.866;2024-03-06T04:39:51;18.70;;;12.45;;
41345;SDS011;76901;48.338;10.866;2024-03-06T04:42:16;16.75;;;12.18;;
41345;SDS011;76901;48.338;10.866;2024-03-06T04:44:41;17.58;;;13.32;;
41345;SDS011;76901;48.338;10.866;2024-03-06T04:47:07;19.20;;;12.75;;
41345;SDS011;76901;48.338;10.866;2024-03-06T04:49:33;18.85;;;13.55;;
41345;SDS011;76901;48.338;10.866;2024-03-06T04:51:58;19.25;;;13.38;;
41345;SDS011;76901;48.338;10.866;2024-03-06T04:54:25;19.20;;;13.88;;
41345;SDS011;76901;48.338;10.866;2024-03-06T04:56:50;21.67;;;15.15;;
41345;SDS011;76901;48.338;10.866;2024-03-06T04:59:16;19.60;;;14.43;;
41345;SDS011;76901;48.338;10.866;2024-03-06T05:01:41;22.13;;;15.40;;
41345;SDS011;76901;48.338;10.866;2024-03-06T05:04:06;22.10;;;15.00;;
41345;SDS011;76901;48.338;10.866;2024-03-06T05:06:32;20.67;;;15.30;;
41345;SDS011;76901;48.338;10.866;2024-03-06T05:08:57;21.95;;;16.02;;
41345;SDS011;76901;48.338;10.866;2024-03-06T05:11:24;22.85;;;15.43;;
41345;SDS011;76901;48.338;10.866;2024-03-06T05:13:49;23.27;;;16.35;;
41345;SDS011;76901;48.338;10.866;2024-03-06T05:16:14;26.10;;;16.23;;
41345;SDS011;76901;48.338;10.866;2024-03-06T05:18:40;24.80;;;15.90;;
41345;SDS011;76901;48.338;10.866;2024-03-06T05:21:05;23.25;;;14.85;;
41345;SDS011;76901;48.338;10.866;2024-03-06T05:23:31;23.23;;;16.55;;
41345;SDS011;76901;48.338;10.866;2024-03-06T05:25:56;24.60;;;17.33;;
41345;SDS011;76901;48.338;10.866;2024-03-06T05:28:23;24.00;;;17.77;;
41345;SDS011;76901;48.338;10.866;2024-03-06T05:30:48;25.27;;;17.17;;
41345;SDS011;76901;48.338;10.866;2024-03-06T05:33:14;26.83;;;17.15;;
41345;SDS011;76901;48.338;10.866;2024-03-06T05:35:39;26.52;;;18.20;;
41345;SDS011;76901;48.338;10.866;2024-03-06T05:38:04;26.08;;;17.63;;
41345;SDS011;76901;48.338;10.866;2024-03-06T05:40:30;28.48;;;18.23;;
41345;SDS011;76901;48.338;10.866;2024-03-06T05:42:55;29.55;;;19.77;;
41345;SDS011;76901;48.338;10.866;2024-03-06T05:45:22;30.70;;;20.27;;
41345;SDS011;76901;48.338;10.866;2024-03-06T05:47:47;30.25;;;21.00;;
41345;SDS011;76901;48.338;10.866;2024-03-06T05:50:13;29.85;;;20.95;;
41345;SDS011;76901;48.338;10.866;2024-03-06T05:52:38;35.25;;;21.58;;
41345;SDS011;76901;48.338;10.866;2024-03-06T05:55:04;27.58;;;18.58;;
41345;SDS011;76901;48.338;10.866;2024-03-06T05:57:30;31.05;;;21.55;;
41345;SDS011;76901;48.338;10.866;2024-03-06T05:59:55;31.60;;;21.33;;
41345;SDS011;76901;48.338;10.866;2024-03-06T06:02:22;31.17;;;22.10;;
41345;SDS011;76901;48.338;10.866;2024-03-06T06:04:48;35.45;;;23.98;;
41345;SDS011;76901;48.338;10.866;2024-03-06T06:07:13;38.13;;;23.42;;
41345;SDS011;76901;48.338;10.866;2024-03-06T06:09:38;35.22;;;23.17;;
41345;SDS011;76901;48.338;10.866;2024-03-06T06:12:04;33.13;;;21.45;;
41345;SDS011;76901;48.338;10.866;2024-03-06T06:14:29;37.35;;;23.38;;
41345;SDS011;76901;48.338;10.866;2024-03-06T06:16:55;34.83;;;22.38;;
41345;SDS011;76901;48.338;10.866;2024-03-06T06:19:23;35.42;;;22.58;;
41345;SDS011;76901;48.338;10.866;2024-03-06T06:21:48;32.45;;;22.02;;
41345;SDS011;76901;48.338;10.866;2024-03-06T06:24:13;34.97;;;23.33;;
41345;SDS011;76901;48.338;10.866;2024-03-06T06:26:39;34.17;;;23.00;;
41345;SDS011;76901;48.338;10.866;2024-03-06T06:29:04;33.53;;;22.75;;
41345;SDS011;76901;48.338;10.866;2024-03-06T06:31:30;32.65;;;22.15;;
41345;SDS011;76901;48.338;10.866;2024-03-06T06:33:55;35.00;;;21.30;;
41345;SDS011;76901;48.338;10.866;2024-03-06T06:36:22;30.38;;;19.63;;
41345;SDS011;76901;48.338;10.866;2024-03-06T06:38:47;29.73;;;19.83;;
41345;SDS011;76901;48.338;10.866;2024-03-06T06:41:13;31.17;;;19.60;;
41345;SDS011;76901;48.338;10.866;2024-03-06T06:43:39;32.35;;;22.05;;
41345;SDS011;76901;48.338;10.866;2024-03-06T06:46:04;35.88;;;21.38;;
41345;SDS011;76901;48.338;10.866;2024-03-06T06:48:30;30.73;;;20.63;;
41345;SDS011;76901;48.338;10.866;2024-03-06T06:50:55;31.00;;;18.48;;
41345;SDS011;76901;48.338;10.866;2024-03-06T06:53:22;31.02;;;19.58;;
41345;SDS011;76901;48.338;10.866;2024-03-06T06:55:47;32.75;;;19.48;;
41345;SDS011;76901;48.338;10.866;2024-03-06T06:58:13;28.80;;;19.30;;
41345;SDS011;76901;48.338;10.866;2024-03-06T07:00:38;31.23;;;20.23;;
41345;SDS011;76901;48.338;10.866;2024-03-06T07:03:04;31.75;;;20.45;;
41345;SDS011;76901;48.338;10.866;2024-03-06T07:05:29;31.90;;;21.65;;
41345;SDS011;76901;48.338;10.866;2024-03-06T07:07:54;35.55;;;21.77;;
41345;SDS011;76901;48.338;10.866;2024-03-06T07:10:21;31.77;;;21.67;;
41345;SDS011;76901;48.338;10.866;2024-03-06T07:12:47;29.25;;;18.35;;
41345;SDS011;76901;48.338;10.866;2024-03-06T07:15:12;27.35;;;17.98;;
41345;SDS011;76901;48.338;10.866;2024-03-06T07:17:38;30.17;;;18.98;;
41345;SDS011;76901;48.338;10.866;2024-03-06T07:20:03;29.27;;;19.38;;
41345;SDS011;76901;48.338;10.866;2024-03-06T07:22:30;32.08;;;19.30;;
41345;SDS011;76901;48.338;10.866;2024-03-06T07:24:55;32.10;;;20.08;;
41345;SDS011;76901;48.338;10.866;2024-03-06T07:27:22;33.67;;;19.85;;
41345;SDS011;76901;48.338;10.866;2024-03-06T07:29:47;31.58;;;18.48;;
41345;SDS011;76901;48.338;10.866;2024-03-06T07:32:12;33.72;;;19.30;;
41345;SDS011;76901;48.338;10.866;2024-03-06T07:34:38;32.00;;;18.63;;
41345;SDS011;76901;48.338;10.866;2024-03-06T07:37:03;31.05;;;17.88;;
41345;SDS011;76901;48.338;10.866;2024-03-06T07:39:29;31.70;;;18.35;;
41345;SDS011;76901;48.338;10.866;2024-03-06T07:41:54;30.45;;;18.65;;
41345;SDS011;76901;48.338;10.866;2024-03-06T07:44:21;26.52;;;17.42;;
41345;SDS011;76901;48.338;10.866;2024-03-06T07:46:46;28.92;;;18.10;;
41345;SDS011;76901;48.338;10.866;2024-03-06T07:49:12;31.23;;;18.40;;
41345;SDS011;76901;48.338;10.866;2024-03-06T07:51:37;27.90;;;17.63;;
41345;SDS011;76901;48.338;10.866;2024-03-06T07:54:03;29.80;;;17.13;;
41345;SDS011;76901;48.338;10.866;2024-03-06T07:56:28;26.85;;;16.85;;
41345;SDS011;76901;48.338;10.866;2024-03-06T07:58:54;28.38;;;16.17;;
41345;SDS011;76901;48.338;10.866;2024-03-06T08:01:20;28.85;;;16.70;;
41345;SDS011;76901;48.338;10.866;2024-03-06T08:03:46;25.85;;;16.52;;
41345;SDS011;76901;48.338;10.866;2024-03-06T08:06:11;29.42;;;17.45;;
41345;SDS011;76901;48.338;10.866;2024-03-06T08:08:39;28.85;;;17.00;;
41345;SDS011;76901;48.338;10.866;2024-03-06T08:11:05;30.98;;;17.70;;
41345;SDS011;76901;48.338;10.866;2024-03-06T08:13:30;29.08;;;17.45;;
41345;SDS011;76901;48.338;10.866;2024-03-06T08:15:56;27.15;;;16.55;;
41345;SDS011;76901;48.338;10.866;2024-03-06T08:18:23;29.35;;;16.58;;
41345;SDS011;76901;48.338;10.866;2024-03-06T08:20:48;28.00;;;16.98;;
41345;SDS011;76901;48.338;10.866;2024-03-06T08:23:13;25.67;;;16.70;;
41345;SDS011;76901;48.338;10.866;2024-03-06T08:25:39;27.88;;;17.52;;
41345;SDS011;76901;48.338;10.866;2024-03-06T08:28:04;30.65;;;17.33;;
41345;SDS011;76901;48.338;10.866;2024-03-06T08:30:30;28.35;;;17.50;;
41345;SDS011;76901;48.338;10.866;2024-03-06T08:32:56;28.42;;;16.08;;
41345;SDS011;76901;48.338;10.866;2024-03-06T08:35:23;25.40;;;15.25;;
41345;SDS011;76901;48.338;10.866;2024-03-06T08:37:49;24.70;;;14.70;;
41345;SDS011;76901;48.338;10.866;2024-03-06T08:40:15;30.02;;;16.65;;
41345;SDS011;76901;48.338;10.866;2024-03-06T08:42:41;27.17;;;16.63;;
41345;SDS011;76901;48.338;10.866;2024-03-06T08:45:06;29.17;;;16.63;;
41345;SDS011;76901;48.338;10.866;2024-03-06T08:47:32;33.28;;;17.65;;
41345;SDS011;76901;48.338;10.866;2024-03-06T08:49:58;26.25;;;16.23;;
41345;SDS011;76901;48.338;10.866;2024-03-06T08:52:24;29.80;;;17.33;;
41345;SDS011;76901;48.338;10.866;2024-03-06T08:54:50;30.70;;;16.70;;
41345;SDS011;76901;48.338;10.866;2024-03-06T08:57:15;28.45;;;16.73;;
41345;SDS011;76901;48.338;10.866;2024-03-06T08:59:40;27.92;;;16.02;;
41345;SDS011;76901;48.338;10.866;2024-03-06T09:02:12;27.55;;;16.52;;
41345;SDS011;76901;48.338;10.866;2024-03-06T09:04:38;28.13;;;15.50;;
41345;SDS011;76901;48.338;10.866;2024-03-06T09:07:03;26.42;;;15.82;;
41345;SDS011;76901;48.338;10.866;2024-03-06T09:09:30;26.20;;;16.13;;
41345;SDS011;76901;48.338;10.866;2024-03-06T09:11:56;29.13;;;15.05;;
41345;SDS011;76901;48.338;10.866;2024-03-06T09:14:21;25.75;;;15.63;;
41345;SDS011;76901;48.338;10.866;2024-03-06T09:16:46;24.10;;;14.50;;
41345;SDS011;76901;48.338;10.866;2024-03-06T09:19:12;24.40;;;15.52;;
41345;SDS011;76901;48.338;10.866;2024-03-06T09:21:37;29.98;;;15.70;;
41345;SDS011;76901;48.338;10.866;2024-03-06T09:24:02;27.67;;;16.38;;
41345;SDS011;76901;48.338;10.866;2024-03-06T09:26:29;26.58;;;15.57;;
41345;SDS011;76901;48.338;10.866;2024-03-06T09:28:55;25.00;;;14.77;;
41345;SDS011;76901;48.338;10.866;2024-03-06T09:31:20;24.98;;;14.63;;
41345;SDS011;76901;48.338;10.866;2024-03-06T09:33:45;25.48;;;14.48;;
41345;SDS011;76901;48.338;10.866;2024-03-06T09:36:11;23.42;;;14.15;;
41345;SDS011;76901;48.338;10.866;2024-03-06T09:38:36;25.27;;;15.77;;
41345;SDS011;76901;48.338;10.866;2024-03-06T09:41:01;26.77;;;15.75;;
41345;SDS011;76901;48.338;10.866;2024-03-06T09:43:29;30.38;;;16.40;;
41345;SDS011;76901;48.338;10.866;2024-03-06T09:45:54;26.85;;;16.35;;
41345;SDS011;76901;48.338;10.866;2024-03-06T09:48:21;21.08;;;14.57;;
41345;SDS011;76901;48.338;10.866;2024-03-06T09:50:48;23.10;;;14.32;;
41345;SDS011;76901;48.338;10.866;2024-03-06T09:53:14;26.25;;;14.15;;
41345;SDS011;76901;48.338;10.866;2024-03-06T09:55:41;20.73;;;12.93;;
41345;SDS011;76901;48.338;10.866;2024-03-06T09:58:07;29.50;;;14.80;;
41345;SDS011;76901;48.338;10.866;2024-03-06T10:00:34;25.27;;;15.68;;
41345;SDS011;76901;48.338;10.866;2024-03-06T10:02:59;23.33;;;14.80;;
41345;SDS011;76901;48.338;10.866;2024-03-06T10:05:26;24.85;;;14.82;;
41345;SDS011;76901;48.338;10.866;2024-03-06T10:07:51;35.65;;;15.18;;
41345;SDS011;76901;48.338;10.866;2024-03-06T10:10:17;26.00;;;15.65;;
41345;SDS011;76901;48.338;10.866;2024-03-06T10:12:42;26.95;;;15.80;;
41345;SDS011;76901;48.338;10.866;2024-03-06T10:15:09;28.73;;;15.77;;
41345;SDS011;76901;48.338;10.866;2024-03-06T10:17:36;29.92;;;16.52;;
41345;SDS011;76901;48.338;10.866;2024-03-06T10:20:03;53.40;;;26.98;;
41345;SDS011;76901;48.338;10.866;2024-03-06T10:22:42;34.33;;;19.45;;
41345;SDS011;76901;48.338;10.866;2024-03-06T10:25:08;27.65;;;17.15;;
41345;SDS011;76901;48.338;10.866;2024-03-06T10:27:33;27.15;;;15.98;;
41345;SDS011;76901;48.338;10.866;2024-03-06T10:30:01;30.48;;;16.10;;
41345;SDS011;76901;48.338;10.866;2024-03-06T10:32:27;33.38;;;17.70;;
41345;SDS011;76901;48.338;10.866;2024-03-06T10:34:54;31.20;;;17.70;;
41345;SDS011;76901;48.338;10.866;2024-03-06T10:37:19;32.50;;;18.05;;
41345;SDS011;76901;48.338;10.866;2024-03-06T10:39:45;33.13;;;19.30;;
41345;SDS011;76901;48.338;10.866;2024-03-06T10:42:16;31.13;;;19.17;;
41345;SDS011;76901;48.338;10.866;2024-03-06T10:44:43;32.15;;;19.73;;
41345;SDS011;76901;48.338;10.866;2024-03-06T10:47:16;31.67;;;19.15;;
41345;SDS011;76901;48.338;10.866;2024-03-06T10:49:43;30.70;;;17.92;;
41345;SDS011;76901;48.338;10.866;2024-03-06T10:52:11;36.95;;;20.77;;
41345;SDS011;76901;48.338;10.866;2024-03-06T10:54:38;35.22;;;20.20;;
41345;SDS011;76901;48.338;10.866;2024-03-06T10:57:04;41.78;;;21.85;;
41345;SDS011;76901;48.338;10.866;2024-03-06T10:59:31;44.33;;;23.85;;
41345;SDS011;76901;48.338;10.866;2024-03-06T11:01:56;40.55;;;22.33;;
41345;SDS011;76901;48.338;10.866;2024-03-06T11:04:24;33.53;;;20.88;;
41345;SDS011;76901;48.338;10.866;2024-03-06T11:06:50;37.25;;;20.58;;
41345;SDS011;76901;48.338;10.866;2024-03-06T11:09:17;35.65;;;21.27;;
41345;SDS011;76901;48.338;10.866;2024-03-06T11:11:49;37.83;;;20.73;;
41345;SDS011;76901;48.338;10.866;2024-03-06T11:14:15;33.45;;;19.17;;
41345;SDS011;76901;48.338;10.866;2024-03-06T11:16:55;34.05;;;19.33;;
41345;SDS011;76901;48.338;10.866;2024-03-06T11:19:22;34.33;;;19.63;;
41345;SDS011;76901;48.338;10.866;2024-03-06T11:21:48;37.22;;;21.05;;
41345;SDS011;76901;48.338;10.866;2024-03-06T11:24:14;34.00;;;19.55;;
41345;SDS011;76901;48.338;10.866;2024-03-06T11:26:43;35.10;;;19.10;;
41345;SDS011;76901;48.338;10.866;2024-03-06T11:29:10;32.60;;;19.42;;
41345;SDS011;76901;48.338;10.866;2024-03-06T11:31:36;32.58;;;19.02;;
41345;SDS011;76901;48.338;10.866;2024-03-06T11:34:02;40.20;;;22.75;;
41345;SDS011;76901;48.338;10.866;2024-03-06T11:36:29;35.20;;;19.65;;
41345;SDS011;76901;48.338;10.866;2024-03-06T11:38:55;35.55;;;20.70;;
41345;SDS011;76901;48.338;10.866;2024-03-06T11:41:22;37.40;;;19.95;;
41345;SDS011;76901;48.338;10.866;2024-03-06T11:43:50;41.20;;;21.92;;
41345;SDS011;76901;48.338;10.866;2024-03-06T11:46:15;35.03;;;20.70;;
41345;SDS011;76901;48.338;10.866;2024-03-06T11:48:41;33.55;;;20.00;;
41345;SDS011;76901;48.338;10.866;2024-03-06T11:51:06;35.95;;;20.73;;
41345;SDS011;76901;48.338;10.866;2024-03-06T11:53:32;38.63;;;21.45;;
41345;SDS011;76901;48.338;10.866;2024-03-06T11:55:59;33.75;;;22.63;;
41345;SDS011;76901;48.338;10.866;2024-03-06T11:58:24;37.03;;;22.67;;
41345;SDS011;76901;48.338;10.866;2024-03-06T12:00:51;38.15;;;21.98;;
41345;SDS011;76901;48.338;10.866;2024-03-06T12:03:18;34.83;;;19.65;;
41345;SDS011;76901;48.338;10.866;2024-03-06T12:05:44;31.88;;;19.17;;
41345;SDS011;76901;48.338;10.866;2024-03-06T12:08:10;36.78;;;21.88;;
41345;SDS011;76901;48.338;10.866;2024-03-06T12:10:36;40.85;;;23.13;;
41345;SDS011;76901;48.338;10.866;2024-03-06T12:13:02;33.72;;;21.52;;
41345;SDS011;76901;48.338;10.866;2024-03-06T12:15:28;38.35;;;23.13;;
41345;SDS011;76901;48.338;10.866;2024-03-06T12:17:55;42.15;;;25.08;;
41345;SDS011;76901;48.338;10.866;2024-03-06T12:20:20;40.50;;;23.92;;
41345;SDS011;76901;48.338;10.866;2024-03-06T12:22:48;40.00;;;24.70;;
41345;SDS011;76901;48.338;10.866;2024-03-06T12:25:17;38.38;;;22.42;;
41345;SDS011;76901;48.338;10.866;2024-03-06T12:27:43;39.72;;;22.38;;
41345;SDS011;76901;48.338;10.866;2024-03-06T12:30:09;35.45;;;20.75;;
41345;SDS011;76901;48.338;10.866;2024-03-06T12:32:35;38.35;;;21.02;;
41345;SDS011;76901;48.338;10.866;2024-03-06T12:35:02;41.47;;;22.48;;
41345;SDS011;76901;48.338;10.866;2024-03-06T12:37:28;38.50;;;21.05;;
41345;SDS011;76901;48.338;10.866;2024-03-06T12:39:54;41.83;;;22.17;;
41345;SDS011;76901;48.338;10.866;2024-03-06T12:42:19;37.80;;;21.83;;
41345;SDS011;76901;48.338;10.866;2024-03-06T12:44:45;36.63;;;20.95;;
41345;SDS011;76901;48.338;10.866;2024-03-06T12:47:10;39.03;;;21.38;;
41345;SDS011;76901;48.338;10.866;2024-03-06T12:49:35;40.65;;;21.10;;
41345;SDS011;76901;48.338;10.866;2024-03-06T12:52:02;35.95;;;20.55;;
41345;SDS011;76901;48.338;10.866;2024-03-06T12:54:28;30.73;;;17.83;;
41345;SDS011;76901;48.338;10.866;2024-03-06T12:56:53;28.70;;;17.60;;
41345;SDS011;76901;48.338;10.866;2024-03-06T12:59:19;31.27;;;19.13;;
41345;SDS011;76901;48.338;10.866;2024-03-06T13:01:44;32.67;;;17.52;;
41345;SDS011;76901;48.338;10.866;2024-03-06T13:04:10;29.73;;;17.80;;
41345;SDS011;76901;48.338;10.866;2024-03-06T13:06:35;28.20;;;15.60;;
41345;SDS011;76901;48.338;10.866;2024-03-06T13:09:02;23.88;;;14.82;;
41345;SDS011;76901;48.338;10.866;2024-03-06T13:11:27;28.33;;;16.27;;
41345;SDS011;76901;48.338;10.866;2024-03-06T13:13:52;29.08;;;16.88;;
41345;SDS011;76901;48.338;10.866;2024-03-06T13:16:18;32.28;;;18.42;;
41345;SDS011;76901;48.338;10.866;2024-03-06T13:18:43;33.20;;;18.00;;
41345;SDS011;76901;48.338;10.866;2024-03-06T13:21:08;29.05;;;17.20;;
41345;SDS011;76901;48.338;10.866;2024-03-06T13:23:34;35.45;;;17.38;;
41345;SDS011;76901;48.338;10.866;2024-03-06T13:26:01;33.08;;;18.35;;
41345;SDS011;76901;48.338;10.866;2024-03-06T13:28:26;36.40;;;18.25;;
41345;SDS011;76901;48.338;10.866;2024-03-06T13:30:51;37.70;;;20.80;;
41345;SDS011;76901;48.338;10.866;2024-03-06T13:33:17;40.58;;;21.13;;
41345;SDS011;76901;48.338;10.866;2024-03-06T13:35:42;32.00;;;18.05;;
41345;SDS011;76901;48.338;10.866;2024-03-06T13:38:08;30.85;;;18.25;;
41345;SDS011;76901;48.338;10.866;2024-03-06T13:40:33;32.05;;;18.77;;
41345;SDS011;76901;48.338;10.866;2024-03-06T13:43:00;30.67;;;17.63;;
41345;SDS011;76901;48.338;10.866;2024-03-06T13:45:25;29.77;;;17.45;;
41345;SDS011;76901;48.338;10.866;2024-03-06T13:47:50;21.50;;;13.00;;
41345;SDS011;76901;48.338;10.866;2024-03-06T13:50:16;23.25;;;13.27;;
41345;SDS011;76901;48.338;10.866;2024-03-06T13:52:42;22.05;;;11.68;;
41345;SDS011;76901;48.338;10.866;2024-03-06T13:55:08;18.77;;;11.48;;
41345;SDS011;76901;48.338;10.866;2024-03-06T13:57:35;21.80;;;10.90;;
41345;SDS011;76901;48.338;10.866;2024-03-06T14:00:03;15.75;;;9.88;;